createdAt,value
2022-08-04T13:22:23.566Z,1175.63
2022-08-04T13:23:23.599Z,1175.63
2022-08-04T13:26:43.532Z,1147.50
2022-08-04T13:26:44.385Z,1147.50
2022-08-04T13:27:24.120Z,1136.25
2022-08-04T13:28:23.937Z,1125.00
2022-08-04T13:29:57.891Z,1119.38
2022-08-04T13:30:24.273Z,1158.75
2022-08-04T13:30:25.742Z,1113.75
2022-08-04T13:31:24.132Z,1102.50
2022-08-04T13:32:24.232Z,1096.88
2022-08-04T13:33:24.279Z,1091.25
2022-08-04T13:34:24.344Z,1085.63
2022-08-04T13:35:54.851Z,1085.63
2022-08-04T13:36:24.475Z,1074.38
2022-08-04T13:37:24.783Z,1057.50
2022-08-04T13:38:24.616Z,1046.25
2022-08-04T13:39:24.720Z,1040.63
2022-08-04T13:40:24.774Z,1040.63
2022-08-04T13:41:27.750Z,1023.75
2022-08-04T13:42:24.882Z,1023.75
2022-08-04T13:44:15.769Z,1006.88
2022-08-04T13:44:25.016Z,1006.88
2022-08-04T13:45:25.116Z,990.00
2022-08-04T13:46:27.069Z,990.00
2022-08-04T13:47:25.388Z,978.75
2022-08-04T13:48:32.145Z,973.13
2022-08-04T13:49:42.810Z,967.50
2022-08-04T13:50:25.463Z,967.50
2022-08-04T13:51:25.535Z,950.63
2022-08-04T13:52:25.577Z,945.00
2022-08-04T13:53:29.297Z,939.38
2022-08-04T13:54:25.708Z,933.75
2022-08-04T13:55:25.777Z,922.50
2022-08-04T13:56:25.874Z,922.50
2022-08-04T13:57:25.920Z,905.63
2022-08-04T13:58:25.993Z,905.63
2022-08-04T13:59:26.056Z,900.00
2022-08-04T14:00:30.109Z,900.00
2022-08-04T14:01:35.259Z,894.38
2022-08-04T14:02:26.264Z,883.13
2022-08-04T14:03:26.362Z,883.13
2022-08-04T14:04:26.402Z,871.88
2022-08-04T14:05:28.744Z,860.63
2022-08-04T14:06:26.545Z,855.00
2022-08-04T14:07:26.699Z,855.00
2022-08-04T14:08:26.708Z,849.38
2022-08-04T14:09:35.046Z,843.75
2022-08-04T14:10:26.825Z,838.13
2022-08-04T14:12:08.881Z,832.50
2022-08-04T14:12:45.103Z,832.50
2022-08-04T14:13:27.058Z,826.88
2022-08-04T14:14:27.102Z,821.25
2022-08-04T14:15:27.169Z,810.00
2022-08-04T14:16:27.243Z,804.38
2022-08-04T14:17:29.996Z,804.38
2022-08-04T14:18:27.607Z,787.50
2022-08-04T14:19:35.792Z,781.88
2022-08-04T14:20:27.518Z,781.88
2022-08-04T14:21:48.623Z,770.63
2022-08-04T14:22:27.665Z,765.00
2022-08-04T14:35:15.078Z,703.13
2022-08-04T14:36:04.511Z,697.50
2022-08-04T14:37:18.300Z,691.88
2022-08-04T14:38:03.576Z,691.88
2022-08-04T14:39:02.880Z,680.63
2022-08-04T14:40:17.621Z,675.00
2022-08-04T14:41:02.988Z,669.38
2022-08-04T14:42:03.042Z,663.75
2022-08-04T14:43:07.597Z,658.13
2022-08-04T14:44:03.196Z,652.50
2022-08-04T14:45:03.291Z,652.50
2022-08-04T14:46:03.323Z,646.88
2022-08-04T14:47:03.392Z,641.25
2022-08-04T14:48:03.463Z,635.63
2022-08-04T14:49:03.537Z,635.63
2022-08-04T14:50:03.631Z,624.38
2022-08-04T14:51:03.671Z,618.75
2022-08-04T14:52:03.776Z,613.13
2022-08-04T14:53:03.814Z,607.50
2022-08-04T14:54:07.925Z,601.88
2022-08-04T14:55:03.965Z,601.88
2022-08-04T14:56:04.024Z,596.25
2022-08-04T14:57:04.136Z,596.25
2022-08-04T14:58:36.109Z,585.00
2022-08-04T14:59:04.241Z,579.38
2022-08-04T15:00:10.197Z,573.75
2022-08-04T15:01:10.113Z,568.13
2022-08-04T15:02:04.557Z,562.50
2022-08-04T15:03:04.521Z,556.88
2022-08-04T15:04:04.591Z,551.25
2022-08-04T15:05:55.002Z,545.63
2022-08-04T15:06:10.887Z,545.63
2022-08-04T15:07:04.985Z,540.00
2022-08-04T15:08:04.880Z,534.38
2022-08-04T15:09:04.980Z,528.75
2022-08-04T15:10:05.020Z,523.13
2022-08-04T15:11:05.089Z,517.50
2022-08-04T15:12:05.157Z,511.88
2022-08-04T15:13:05.229Z,506.25
2022-08-04T15:16:14.185Z,495.00
2022-08-04T15:20:57.143Z,472.50
2022-08-04T15:21:47.291Z,466.88
2022-08-04T15:22:47.356Z,461.25
2022-08-04T15:23:47.597Z,455.63
2022-08-04T15:36:43.523Z,399.38
2022-08-04T15:37:43.600Z,393.75
2022-08-04T15:38:43.633Z,388.13
2022-08-04T15:39:43.698Z,382.50
2022-08-04T15:40:43.769Z,376.88
2022-08-04T16:35:49.331Z,101.25
2022-08-04T16:36:49.361Z,101.25
2022-08-04T16:37:49.422Z,90.00
2022-08-04T16:38:49.477Z,78.75
2022-08-04T16:39:51.486Z,73.13
2022-08-04T16:40:49.597Z,73.13
2022-08-04T16:41:49.657Z,73.13
2022-08-04T16:42:49.718Z,67.50
2022-08-04T16:43:49.780Z,67.50
2022-08-04T16:44:53.703Z,67.50
2022-08-04T16:45:49.902Z,67.50
2022-08-04T16:47:22.261Z,73.13
2022-08-04T16:47:50.012Z,78.75
2022-08-04T16:48:50.095Z,73.13
2022-08-04T16:49:51.899Z,67.50
2022-08-04T16:50:50.271Z,67.50
2022-08-04T16:51:50.249Z,61.88
2022-08-04T16:52:50.310Z,61.88
2022-08-04T16:54:02.845Z,61.88
2022-08-04T16:54:50.427Z,61.88
2022-08-04T16:55:50.523Z,61.88
2022-08-04T16:56:50.555Z,61.88
2022-08-04T16:57:50.608Z,61.88
2022-08-04T16:58:54.384Z,61.88
2022-08-04T16:59:50.723Z,61.88
2022-08-04T17:00:50.816Z,61.88
2022-08-04T17:01:50.890Z,61.88
2022-08-04T17:02:50.903Z,56.25
2022-08-04T17:03:56.187Z,56.25
2022-08-04T17:05:12.047Z,56.25
2022-08-04T17:05:51.102Z,56.25
2022-08-04T17:06:51.160Z,56.25
2022-08-04T17:08:07.087Z,56.25
2022-08-04T17:08:51.255Z,56.25
2022-08-04T17:09:51.316Z,56.25
2022-08-04T17:10:51.375Z,56.25
2022-08-04T17:11:51.458Z,56.25
2022-08-04T17:12:59.522Z,56.25
2022-08-04T17:14:03.722Z,56.25
2022-08-04T17:14:51.635Z,56.25
2022-08-04T17:15:51.665Z,56.25
2022-08-04T17:16:51.728Z,56.25
2022-08-04T17:18:01.464Z,50.63
2022-08-04T17:18:51.868Z,50.63
2022-08-04T17:19:51.961Z,50.63
2022-08-04T17:21:01.187Z,50.63
2022-08-04T17:21:52.018Z,50.63
2022-08-04T17:22:52.084Z,50.63
2022-08-04T17:24:13.338Z,50.63
2022-08-04T17:25:13.264Z,50.63
2022-08-04T17:25:52.781Z,50.63
2022-08-04T17:26:54.402Z,50.63
2022-08-04T17:28:08.750Z,50.63
2022-08-04T17:28:52.432Z,50.63
2022-08-04T17:29:52.605Z,50.63
2022-08-04T17:30:52.559Z,50.63
2022-08-04T17:31:53.516Z,50.63
2022-08-04T17:32:52.666Z,45.00
2022-08-04T17:33:54.797Z,45.00
2022-08-04T17:34:52.786Z,45.00
2022-08-04T17:35:52.836Z,45.00
2022-08-04T17:36:52.902Z,45.00
2022-08-04T17:37:53.645Z,45.00
2022-08-04T17:38:53.064Z,45.00
2022-08-04T17:39:53.216Z,45.00
2022-08-04T17:40:53.133Z,45.00
2022-08-04T17:41:53.189Z,45.00
2022-08-04T17:42:53.303Z,45.00
2022-08-04T17:44:03.468Z,45.00
2022-08-04T17:44:53.366Z,45.00
2022-08-04T17:45:56.853Z,45.00
2022-08-04T17:46:53.481Z,45.00
2022-08-04T17:47:53.560Z,45.00
2022-08-04T17:48:53.601Z,39.38
2022-08-04T17:49:53.656Z,39.38
2022-08-04T17:50:53.723Z,39.38
2022-08-04T17:52:05.297Z,39.38
2022-08-04T17:52:53.857Z,39.38
2022-08-04T17:54:02.529Z,39.38
2022-08-04T17:54:53.944Z,39.38
2022-08-04T17:55:54.002Z,39.38
2022-08-04T17:56:54.090Z,39.38
2022-08-04T17:57:54.118Z,39.38
2022-08-04T17:58:54.182Z,39.38
2022-08-04T17:59:56.771Z,39.38
2022-08-04T18:01:05.268Z,39.38
2022-08-04T18:01:54.382Z,39.38
2022-08-04T18:02:54.497Z,39.38
2022-08-04T18:03:54.486Z,39.38
2022-08-04T18:05:06.818Z,39.38
2022-08-04T18:06:03.240Z,39.38
2022-08-04T18:06:54.665Z,39.38
2022-08-04T18:08:34.653Z,39.38
2022-08-04T18:08:57.957Z,33.75
2022-08-04T18:10:02.260Z,33.75
2022-08-04T18:10:56.753Z,33.75
2022-08-04T18:11:54.956Z,33.75
2022-08-04T18:12:54.986Z,28.13
2022-08-04T18:13:57.128Z,28.13
2022-08-04T18:14:55.106Z,28.13
2022-08-04T18:15:55.161Z,28.13
2022-08-04T18:16:55.845Z,28.13
2022-08-04T18:18:21.330Z,22.50
2022-08-04T18:18:55.332Z,22.50
2022-08-04T18:19:55.583Z,22.50
2022-08-04T18:20:55.450Z,22.50
2022-08-04T18:22:00.625Z,22.50
2022-08-04T18:22:55.565Z,22.50
2022-08-04T18:23:55.639Z,22.50
2022-08-04T18:24:56.821Z,16.88
2022-08-04T18:25:55.735Z,16.88
2022-08-04T18:26:55.795Z,16.88
2022-08-04T18:27:55.851Z,16.88
2022-08-04T18:28:55.909Z,16.88
2022-08-04T18:30:33.544Z,16.88
2022-08-04T18:30:56.381Z,16.88
2022-08-04T18:31:56.104Z,16.88
2022-08-04T18:33:10.579Z,16.88
2022-08-04T18:33:59.037Z,11.25
2022-08-04T18:34:56.252Z,11.25
2022-08-04T18:36:34.732Z,11.25
2022-08-04T18:36:59.246Z,11.25
2022-08-04T18:38:58.605Z,11.25
2022-08-04T18:40:10.227Z,11.25
2022-08-04T18:40:56.665Z,5.63
2022-08-04T18:42:03.670Z,5.63
2022-08-04T18:42:56.753Z,5.63
2022-08-04T18:43:56.929Z,5.63
2022-08-04T18:44:57.432Z,5.63
2022-08-04T18:45:56.893Z,5.63
2022-08-04T18:46:56.936Z,5.63
2022-08-04T18:47:58.669Z,5.63
2022-08-04T18:48:57.051Z,5.63
2022-08-04T18:51:01.291Z,0.00
2022-08-04T18:51:09.674Z,0.00
2022-08-04T18:51:57.221Z,0.00
2022-08-04T18:52:57.278Z,0.00
2022-08-04T18:53:59.028Z,0.00
2022-08-04T18:54:57.413Z,0.00
2022-08-04T18:55:58.472Z,0.00
2022-08-04T18:57:25.134Z,0.00
2022-08-04T18:58:00.671Z,0.00
2022-08-04T18:58:57.621Z,0.00
2022-08-04T18:59:57.682Z,0.00
2022-08-04T19:01:00.393Z,0.00
2022-08-04T19:02:16.469Z,0.00
2022-08-04T19:02:57.849Z,0.00
2022-08-04T19:03:58.106Z,0.00
2022-08-04T19:04:57.964Z,0.00
2022-08-04T19:05:58.346Z,0.00
2022-08-04T19:06:58.072Z,0.00
2022-08-04T19:08:01.805Z,0.00
2022-08-04T19:08:58.204Z,0.00
2022-08-04T19:09:59.865Z,0.00
2022-08-04T19:10:59.654Z,0.00
2022-08-04T19:11:58.358Z,0.00
2022-08-04T19:12:58.410Z,0.00
2022-08-04T19:13:59.007Z,0.00
2022-08-04T19:15:10.589Z,0.00
2022-08-04T19:15:58.586Z,0.00
2022-08-04T19:16:58.641Z,0.00
2022-08-04T19:18:00.245Z,0.00
2022-08-04T19:18:58.771Z,0.00
2022-08-04T19:19:58.802Z,0.00
2022-08-04T19:20:58.871Z,0.00
2022-08-04T19:22:02.522Z,0.00
2022-08-04T19:24:27.417Z,0.00
2022-08-04T19:24:27.807Z,0.00
2022-08-04T19:24:59.105Z,0.00
2022-08-04T19:26:04.734Z,0.00
2022-08-04T19:26:59.201Z,0.00
2022-08-04T19:27:59.266Z,0.00
2022-08-04T19:28:59.343Z,0.00
2022-08-04T19:29:59.363Z,0.00
2022-08-04T19:30:59.418Z,0.00
2022-08-04T19:31:59.476Z,0.00
2022-08-04T19:32:59.531Z,0.00
2022-08-04T19:34:04.805Z,0.00
2022-08-04T19:34:59.635Z,0.00
2022-08-04T19:35:59.695Z,0.00
2022-08-04T19:36:59.759Z,0.00
2022-08-04T19:38:03.869Z,0.00
2022-08-04T19:38:59.963Z,0.00
2022-08-04T19:39:59.954Z,0.00
2022-08-04T19:40:59.995Z,0.00
2022-08-04T19:43:12.056Z,0.00
2022-08-04T19:44:00.139Z,0.00
2022-08-04T19:45:00.227Z,0.00
2022-08-04T19:46:00.263Z,0.00
2022-08-04T19:47:00.720Z,0.00
2022-08-04T19:48:15.940Z,0.00
2022-08-04T19:49:00.818Z,0.00
2022-08-04T19:50:04.881Z,0.00
2022-08-04T19:51:00.521Z,0.00
2022-08-04T19:52:00.613Z,0.00
2022-08-04T19:53:00.635Z,0.00
2022-08-04T19:54:03.948Z,0.00
2022-08-04T19:55:00.764Z,0.00
2022-08-04T19:56:00.830Z,0.00
2022-08-04T19:57:00.890Z,0.00
2022-08-04T19:58:00.913Z,0.00
2022-08-04T19:59:01.006Z,0.00
2022-08-04T20:00:01.014Z,0.00
2022-08-04T20:01:01.132Z,0.00
2022-08-04T20:02:01.152Z,0.00
2022-08-04T20:03:01.182Z,0.00
2022-08-04T20:04:09.751Z,0.00
2022-08-04T20:05:01.309Z,0.00
2022-08-04T20:06:01.473Z,0.00
2022-08-04T20:07:01.427Z,0.00
2022-08-04T20:08:01.464Z,0.00
2022-08-04T20:09:01.521Z,0.00
2022-08-04T20:10:04.601Z,0.00
2022-08-04T20:11:01.649Z,0.00
2022-08-04T20:12:01.676Z,0.00
2022-08-04T20:13:01.740Z,0.00
2022-08-04T20:14:02.306Z,0.00
2022-08-04T20:15:01.881Z,0.00
2022-08-04T22:02:18.801Z,0.00
2022-08-04T22:02:52.914Z,0.00
2022-08-04T22:03:57.231Z,0.00
2022-08-04T22:04:50.842Z,0.00
2022-08-04T22:05:51.714Z,0.00
2022-08-04T22:06:52.685Z,0.00
2022-08-04T22:07:58.748Z,0.00
2022-08-04T22:08:52.046Z,0.00
2022-08-04T22:10:02.218Z,0.00
2022-08-04T22:10:52.537Z,0.00
2022-08-04T22:12:07.039Z,0.00
2022-08-04T22:12:52.185Z,0.00
2022-08-04T22:14:11.617Z,0.00
2022-08-04T22:14:57.703Z,0.00
2022-08-04T22:16:03.917Z,0.00
2022-08-04T22:16:52.208Z,0.00
2022-08-04T22:17:51.688Z,0.00
2022-08-04T22:18:53.986Z,0.00
2022-08-04T22:19:56.367Z,0.00
2022-08-04T22:20:54.685Z,0.00
2022-08-04T22:21:58.783Z,0.00
2022-08-04T22:23:16.869Z,0.00
2022-08-04T22:24:13.780Z,0.00
2022-08-04T22:24:52.135Z,0.00
2022-08-04T22:25:55.850Z,0.00
2022-08-04T22:26:52.778Z,0.00
2022-08-04T22:27:55.108Z,0.00
2022-08-04T22:28:59.983Z,0.00
2022-08-04T22:29:53.139Z,0.00
2022-08-04T22:31:24.388Z,0.00
2022-08-04T22:31:56.896Z,0.00
